sensor_id;sensor_type;location;lat;lon;timestamp;temperature;humidity
7512;DHT22;9999;48.780;9.146;2023-02-26T00:01:59;0.70;99.90
7512;DHT22;9999;48.780;9.146;2023-02-26T00:04:26;0.70;99.90
7512;DHT22;9999;48.780;9.146;2023-02-26T00:06:53;0.60;99.90
7512;DHT22;9999;48.780;9.146;2023-02-26T00:09:22;0.60;99.90
7512;DHT22;9999;48.780;9.146;2023-02-26T00:11:49;0.70;99.90
7512;DHT22;9999;48.780;9.146;2023-02-26T00:14:16;0.60;99.90
7512;DHT22;9999;48.780;9.146;2023-02-26T00:16:45;0.50;99.90
7512;DHT22;9999;48.780;9.146;2023-02-26T00:19:14;0.50;99.90
7512;DHT22;9999;48.780;9.146;2023-02-26T00:21:42;0.50;99.90
7512;DHT22;9999;48.780;9.146;2023-02-26T00:24:08;0.50;99.90
7512;DHT22;9999;48.780;9.146;2023-02-26T00:26:35;0.40;99.90
7512;DHT22;9999;48.780;9.146;2023-02-26T00:29:03;0.40;99.90
7512;DHT22;9999;48.780;9.146;2023-02-26T00:31:30;0.40;99.90
7512;DHT22;9999;48.780;9.146;2023-02-26T00:33:58;0.30;99.90
7512;DHT22;9999;48.780;9.146;2023-02-26T00:36:36;0.40;99.90
7512;DHT22;9999;48.780;9.146;2023-02-26T00:39:12;0.30;99.90
7512;DHT22;9999;48.780;9.146;2023-02-26T00:41:42;0.30;99.90
7512;DHT22;9999;48.780;9.146;2023-02-26T00:44:09;0.20;99.90
7512;DHT22;9999;48.780;9.146;2023-02-26T00:46:41;0.20;99.90
7512;DHT22;9999;48.780;9.146;2023-02-26T00:49:17;0.20;99.90
7512;DHT22;9999;48.780;9.146;2023-02-26T00:51:52;0.30;99.90
7512;DHT22;9999;48.780;9.146;2023-02-26T00:54:22;0.30;99.90
7512;DHT22;9999;48.780;9.146;2023-02-26T00:56:51;0.30;99.90
7512;DHT22;9999;48.780;9.146;2023-02-26T00:59:18;0.20;99.90
7512;DHT22;9999;48.780;9.146;2023-02-26T01:01:46;0.20;99.90
7512;DHT22;9999;48.780;9.146;2023-02-26T01:04:14;0.30;99.90
7512;DHT22;9999;48.780;9.146;2023-02-26T01:06:43;0.10;99.90
7512;DHT22;9999;48.780;9.146;2023-02-26T01:09:18;0.10;99.90
7512;DHT22;9999;48.780;9.146;2023-02-26T01:11:49;0.10;99.90
7512;DHT22;9999;48.780;9.146;2023-02-26T01:14:16;0.10;99.90
7512;DHT22;9999;48.780;9.146;2023-02-26T01:16:49;0.10;99.90
7512;DHT22;9999;48.780;9.146;2023-02-26T01:19:23;0.10;99.90
7512;DHT22;9999;48.780;9.146;2023-02-26T01:21:54;0.00;99.90
7512;DHT22;9999;48.780;9.146;2023-02-26T01:24:23;-0.10;99.90
7512;DHT22;9999;48.780;9.146;2023-02-26T01:26:52;0.00;99.90
7512;DHT22;9999;48.780;9.146;2023-02-26T01:29:19;0.00;99.90
7512;DHT22;9999;48.780;9.146;2023-02-26T01:31:51;0.10;99.90
7512;DHT22;9999;48.780;9.146;2023-02-26T01:34:23;0.00;99.90
7512;DHT22;9999;48.780;9.146;2023-02-26T01:36:55;0.00;99.90
7512;DHT22;9999;48.780;9.146;2023-02-26T01:39:29;0.00;99.90
7512;DHT22;9999;48.780;9.146;2023-02-26T01:42:00;-0.10;99.90
7512;DHT22;9999;48.780;9.146;2023-02-26T01:44:31;-0.10;99.90
7512;DHT22;9999;48.780;9.146;2023-02-26T01:47:05;-0.10;99.90
7512;DHT22;9999;48.780;9.146;2023-02-26T01:49:35;-0.10;99.90
7512;DHT22;9999;48.780;9.146;2023-02-26T01:52:04;-0.10;99.90
7512;DHT22;9999;48.780;9.146;2023-02-26T01:54:36;-0.10;99.90
7512;DHT22;9999;48.780;9.146;2023-02-26T01:57:06;-0.10;99.90
7512;DHT22;9999;48.780;9.146;2023-02-26T01:59:37;-0.20;99.90
7512;DHT22;9999;48.780;9.146;2023-02-26T02:02:07;-0.30;99.90
7512;DHT22;9999;48.780;9.146;2023-02-26T02:04:34;-0.20;99.90
7512;DHT22;9999;48.780;9.146;2023-02-26T02:07:03;-0.20;99.90
7512;DHT22;9999;48.780;9.146;2023-02-26T02:09:30;-0.20;99.90
7512;DHT22;9999;48.780;9.146;2023-02-26T02:12:21;-0.30;99.90
7512;DHT22;9999;48.780;9.146;2023-02-26T02:14:58;-0.40;99.90
7512;DHT22;9999;48.780;9.146;2023-02-26T02:17:35;-0.30;99.90
7512;DHT22;9999;48.780;9.146;2023-02-26T02:20:25;-0.40;99.90
7512;DHT22;9999;48.780;9.146;2023-02-26T02:23:06;-0.40;99.90
7512;DHT22;9999;48.780;9.146;2023-02-26T02:25:52;-0.40;99.90
7512;DHT22;9999;48.780;9.146;2023-02-26T02:28:34;-0.40;99.90
7512;DHT22;9999;48.780;9.146;2023-02-26T02:31:08;-0.40;99.90
7512;DHT22;9999;48.780;9.146;2023-02-26T02:33:42;-0.40;99.90
7512;DHT22;9999;48.780;9.146;2023-02-26T02:36:16;-0.50;99.90
7512;DHT22;9999;48.780;9.146;2023-02-26T02:38:48;-0.50;99.90
7512;DHT22;9999;48.780;9.146;2023-02-26T02:41:20;-0.40;99.90
7512;DHT22;9999;48.780;9.146;2023-02-26T02:43:49;-0.50;99.90
7512;DHT22;9999;48.780;9.146;2023-02-26T02:46:22;-0.60;99.90
7512;DHT22;9999;48.780;9.146;2023-02-26T02:48:58;-0.60;99.90
7512;DHT22;9999;48.780;9.146;2023-02-26T02:51:28;-0.60;99.90
7512;DHT22;9999;48.780;9.146;2023-02-26T02:54:00;-0.60;99.90
7512;DHT22;9999;48.780;9.146;2023-02-26T02:56:33;-0.60;99.90
7512;DHT22;9999;48.780;9.146;2023-02-26T02:59:05;-0.60;99.90
7512;DHT22;9999;48.780;9.146;2023-02-26T03:01:38;-0.70;99.90
7512;DHT22;9999;48.780;9.146;2023-02-26T03:04:07;-0.60;99.90
7512;DHT22;9999;48.780;9.146;2023-02-26T03:06:36;-0.60;99.90
7512;DHT22;9999;48.780;9.146;2023-02-26T03:09:05;-0.70;99.90
7512;DHT22;9999;48.780;9.146;2023-02-26T03:11:33;-0.70;99.90
7512;DHT22;9999;48.780;9.146;2023-02-26T03:14:01;-0.80;99.90
7512;DHT22;9999;48.780;9.146;2023-02-26T03:16:52;-0.80;99.90
7512;DHT22;9999;48.780;9.146;2023-02-26T03:19:28;-0.80;99.90
7512;DHT22;9999;48.780;9.146;2023-02-26T03:22:04;-0.80;99.90
7512;DHT22;9999;48.780;9.146;2023-02-26T03:24:55;-0.70;99.90
7512;DHT22;9999;48.780;9.146;2023-02-26T03:27:27;-0.80;99.90
7512;DHT22;9999;48.780;9.146;2023-02-26T03:30:00;-0.80;99.90
7512;DHT22;9999;48.780;9.146;2023-02-26T03:32:38;-0.80;99.90
7512;DHT22;9999;48.780;9.146;2023-02-26T03:35:11;-0.80;99.90
7512;DHT22;9999;48.780;9.146;2023-02-26T03:37:41;-0.90;99.90
7512;DHT22;9999;48.780;9.146;2023-02-26T03:40:14;-0.80;99.90
7512;DHT22;9999;48.780;9.146;2023-02-26T03:42:44;-0.80;99.90
7512;DHT22;9999;48.780;9.146;2023-02-26T03:45:15;-0.80;99.90
7512;DHT22;9999;48.780;9.146;2023-02-26T03:47:48;-0.90;99.90
7512;DHT22;9999;48.780;9.146;2023-02-26T03:50:21;-0.80;99.90
7512;DHT22;9999;48.780;9.146;2023-02-26T03:53:07;-0.80;99.90
7512;DHT22;9999;48.780;9.146;2023-02-26T03:55:45;-0.80;99.90
7512;DHT22;9999;48.780;9.146;2023-02-26T03:58:34;-0.80;99.90
7512;DHT22;9999;48.780;9.146;2023-02-26T04:01:16;-0.80;99.90
7512;DHT22;9999;48.780;9.146;2023-02-26T04:03:49;-0.80;99.90
7512;DHT22;9999;48.780;9.146;2023-02-26T04:06:18;-0.80;99.90
7512;DHT22;9999;48.780;9.146;2023-02-26T04:08:45;-0.90;99.90
7512;DHT22;9999;48.780;9.146;2023-02-26T04:11:15;-0.90;99.90
7512;DHT22;9999;48.780;9.146;2023-02-26T04:13:43;-0.90;99.90
7512;DHT22;9999;48.780;9.146;2023-02-26T04:16:10;-1.00;99.90
7512;DHT22;9999;48.780;9.146;2023-02-26T04:18:37;-1.00;99.90
7512;DHT22;9999;48.780;9.146;2023-02-26T04:21:10;-1.00;99.90
7512;DHT22;9999;48.780;9.146;2023-02-26T04:23:37;-1.10;99.90
7512;DHT22;9999;48.780;9.146;2023-02-26T04:26:04;-1.20;99.90
7512;DHT22;9999;48.780;9.146;2023-02-26T04:28:32;-1.10;99.90
7512;DHT22;9999;48.780;9.146;2023-02-26T04:30:59;-1.20;99.90
7512;DHT22;9999;48.780;9.146;2023-02-26T04:33:26;-1.20;99.90
7512;DHT22;9999;48.780;9.146;2023-02-26T04:35:53;-1.20;99.90
7512;DHT22;9999;48.780;9.146;2023-02-26T04:38:22;-1.20;99.90
7512;DHT22;9999;48.780;9.146;2023-02-26T04:40:49;-1.20;99.90
7512;DHT22;9999;48.780;9.146;2023-02-26T04:43:18;-1.20;99.90
7512;DHT22;9999;48.780;9.146;2023-02-26T04:45:54;-1.30;99.90
7512;DHT22;9999;48.780;9.146;2023-02-26T04:48:21;-1.30;99.90
7512;DHT22;9999;48.780;9.146;2023-02-26T04:50:48;-1.30;99.90
7512;DHT22;9999;48.780;9.146;2023-02-26T04:53:15;-1.20;99.90
7512;DHT22;9999;48.780;9.146;2023-02-26T04:55:43;-1.20;99.90
7512;DHT22;9999;48.780;9.146;2023-02-26T04:58:11;-1.20;99.90
7512;DHT22;9999;48.780;9.146;2023-02-26T05:00:38;-1.20;99.90
7512;DHT22;9999;48.780;9.146;2023-02-26T05:03:05;-1.30;99.90
7512;DHT22;9999;48.780;9.146;2023-02-26T05:05:34;-1.30;99.90
7512;DHT22;9999;48.780;9.146;2023-02-26T05:08:01;-1.30;99.90
7512;DHT22;9999;48.780;9.146;2023-02-26T05:10:28;-1.40;99.90
7512;DHT22;9999;48.780;9.146;2023-02-26T05:12:56;-1.40;99.90
7512;DHT22;9999;48.780;9.146;2023-02-26T05:15:23;-1.30;99.90
7512;DHT22;9999;48.780;9.146;2023-02-26T05:17:50;-1.30;99.90
7512;DHT22;9999;48.780;9.146;2023-02-26T05:20:17;-1.30;99.90
7512;DHT22;9999;48.780;9.146;2023-02-26T05:22:43;-1.30;99.90
7512;DHT22;9999;48.780;9.146;2023-02-26T05:25:10;-1.30;99.90
7512;DHT22;9999;48.780;9.146;2023-02-26T05:27:38;-1.40;99.90
7512;DHT22;9999;48.780;9.146;2023-02-26T05:30:12;-1.40;99.90
7512;DHT22;9999;48.780;9.146;2023-02-26T05:32:39;-1.50;99.90
7512;DHT22;9999;48.780;9.146;2023-02-26T05:35:06;-1.60;99.90
7512;DHT22;9999;48.780;9.146;2023-02-26T05:37:34;-1.60;99.90
7512;DHT22;9999;48.780;9.146;2023-02-26T05:40:01;-1.60;99.90
7512;DHT22;9999;48.780;9.146;2023-02-26T05:42:28;-1.70;99.90
7512;DHT22;9999;48.780;9.146;2023-02-26T05:44:55;-1.70;99.90
7512;DHT22;9999;48.780;9.146;2023-02-26T05:47:23;-1.80;99.90
7512;DHT22;9999;48.780;9.146;2023-02-26T05:49:50;-1.80;99.90
7512;DHT22;9999;48.780;9.146;2023-02-26T05:52:18;-1.70;99.90
7512;DHT22;9999;48.780;9.146;2023-02-26T05:54:44;-1.80;99.90
7512;DHT22;9999;48.780;9.146;2023-02-26T05:57:11;-1.80;99.90
7512;DHT22;9999;48.780;9.146;2023-02-26T05:59:38;-1.80;99.90
7512;DHT22;9999;48.780;9.146;2023-02-26T06:02:05;-1.80;99.90
7512;DHT22;9999;48.780;9.146;2023-02-26T06:04:33;-1.80;99.90
7512;DHT22;9999;48.780;9.146;2023-02-26T06:07:00;-1.80;99.90
7512;DHT22;9999;48.780;9.146;2023-02-26T06:09:27;-1.90;99.90
7512;DHT22;9999;48.780;9.146;2023-02-26T06:11:54;-1.90;99.90
7512;DHT22;9999;48.780;9.146;2023-02-26T06:14:21;-1.90;99.90
7512;DHT22;9999;48.780;9.146;2023-02-26T06:16:48;-1.90;99.90
7512;DHT22;9999;48.780;9.146;2023-02-26T06:19:15;-1.90;99.90
7512;DHT22;9999;48.780;9.146;2023-02-26T06:21:43;-1.90;99.90
7512;DHT22;9999;48.780;9.146;2023-02-26T06:24:09;-1.90;99.90
7512;DHT22;9999;48.780;9.146;2023-02-26T06:26:36;-1.90;99.90
7512;DHT22;9999;48.780;9.146;2023-02-26T06:29:03;-2.00;99.90
7512;DHT22;9999;48.780;9.146;2023-02-26T06:31:30;-2.00;99.90
7512;DHT22;9999;48.780;9.146;2023-02-26T06:33:57;-1.90;99.90
7512;DHT22;9999;48.780;9.146;2023-02-26T06:36:23;-2.00;99.90
7512;DHT22;9999;48.780;9.146;2023-02-26T06:38:52;-1.90;99.90
7512;DHT22;9999;48.780;9.146;2023-02-26T06:41:18;-2.00;99.90
7512;DHT22;9999;48.780;9.146;2023-02-26T06:43:45;-1.90;99.90
7512;DHT22;9999;48.780;9.146;2023-02-26T06:46:12;-1.90;99.90
7512;DHT22;9999;48.780;9.146;2023-02-26T06:48:40;-1.90;99.90
7512;DHT22;9999;48.780;9.146;2023-02-26T06:51:06;-1.90;99.90
7512;DHT22;9999;48.780;9.146;2023-02-26T06:53:33;-1.90;99.90
7512;DHT22;9999;48.780;9.146;2023-02-26T06:56:01;-1.90;99.90
7512;DHT22;9999;48.780;9.146;2023-02-26T06:58:28;-1.80;99.90
7512;DHT22;9999;48.780;9.146;2023-02-26T07:00:55;-1.70;99.90
7512;DHT22;9999;48.780;9.146;2023-02-26T07:03:22;-1.80;99.90
7512;DHT22;9999;48.780;9.146;2023-02-26T07:05:48;-1.80;99.90
7512;DHT22;9999;48.780;9.146;2023-02-26T07:08:15;-1.80;99.90
7512;DHT22;9999;48.780;9.146;2023-02-26T07:10:42;-1.70;99.90
7512;DHT22;9999;48.780;9.146;2023-02-26T07:13:12;-1.70;99.90
7512;DHT22;9999;48.780;9.146;2023-02-26T07:15:38;-1.60;99.90
7512;DHT22;9999;48.780;9.146;2023-02-26T07:18:05;-1.60;99.90
7512;DHT22;9999;48.780;9.146;2023-02-26T07:20:32;-1.50;99.90
7512;DHT22;9999;48.780;9.146;2023-02-26T07:22:59;-1.50;99.90
7512;DHT22;9999;48.780;9.146;2023-02-26T07:25:26;-1.40;99.90
7512;DHT22;9999;48.780;9.146;2023-02-26T07:27:53;-1.40;99.90
7512;DHT22;9999;48.780;9.146;2023-02-26T07:30:22;-1.50;99.90
7512;DHT22;9999;48.780;9.146;2023-02-26T07:32:49;-1.50;99.90
7512;DHT22;9999;48.780;9.146;2023-02-26T07:35:15;-1.40;99.90
7512;DHT22;9999;48.780;9.146;2023-02-26T07:37:42;-1.10;99.90
7512;DHT22;9999;48.780;9.146;2023-02-26T07:40:10;-0.70;99.90
7512;DHT22;9999;48.780;9.146;2023-02-26T07:42:37;-0.10;99.90
7512;DHT22;9999;48.780;9.146;2023-02-26T07:45:05;0.20;99.90
7512;DHT22;9999;48.780;9.146;2023-02-26T07:47:34;0.20;99.90
7512;DHT22;9999;48.780;9.146;2023-02-26T07:50:00;0.00;99.90
7512;DHT22;9999;48.780;9.146;2023-02-26T07:52:28;0.10;99.90
7512;DHT22;9999;48.780;9.146;2023-02-26T07:54:54;0.00;99.90
7512;DHT22;9999;48.780;9.146;2023-02-26T07:57:21;0.00;99.90
7512;DHT22;9999;48.780;9.146;2023-02-26T07:59:48;-0.30;99.90
7512;DHT22;9999;48.780;9.146;2023-02-26T08:02:15;-0.50;99.90
7512;DHT22;9999;48.780;9.146;2023-02-26T08:04:43;-0.60;99.90
7512;DHT22;9999;48.780;9.146;2023-02-26T08:07:10;-0.70;99.90
7512;DHT22;9999;48.780;9.146;2023-02-26T08:09:37;-0.80;99.90
7512;DHT22;9999;48.780;9.146;2023-02-26T08:12:04;-0.80;99.90
7512;DHT22;9999;48.780;9.146;2023-02-26T08:14:30;-0.60;99.90
7512;DHT22;9999;48.780;9.146;2023-02-26T08:16:57;-0.50;99.90
7512;DHT22;9999;48.780;9.146;2023-02-26T08:19:24;-0.40;99.90
7512;DHT22;9999;48.780;9.146;2023-02-26T08:21:52;-0.40;99.90
7512;DHT22;9999;48.780;9.146;2023-02-26T08:24:19;-0.20;99.90
7512;DHT22;9999;48.780;9.146;2023-02-26T08:26:46;-0.40;99.90
7512;DHT22;9999;48.780;9.146;2023-02-26T08:29:13;-0.30;99.90
7512;DHT22;9999;48.780;9.146;2023-02-26T08:31:40;-0.40;99.90
7512;DHT22;9999;48.780;9.146;2023-02-26T08:34:07;-0.40;99.90
7512;DHT22;9999;48.780;9.146;2023-02-26T08:36:34;-0.40;99.90
7512;DHT22;9999;48.780;9.146;2023-02-26T08:39:02;-0.40;99.90
7512;DHT22;9999;48.780;9.146;2023-02-26T08:41:29;-0.40;99.90
7512;DHT22;9999;48.780;9.146;2023-02-26T08:43:58;-0.50;99.90
7512;DHT22;9999;48.780;9.146;2023-02-26T08:46:25;-0.50;99.90
7512;DHT22;9999;48.780;9.146;2023-02-26T08:48:53;-0.50;99.90
7512;DHT22;9999;48.780;9.146;2023-02-26T08:51:20;-0.50;99.90
7512;DHT22;9999;48.780;9.146;2023-02-26T08:53:47;-0.50;99.90
7512;DHT22;9999;48.780;9.146;2023-02-26T08:56:16;-0.50;99.90
7512;DHT22;9999;48.780;9.146;2023-02-26T08:58:43;-0.40;99.90
7512;DHT22;9999;48.780;9.146;2023-02-26T09:01:09;-0.50;99.90
7512;DHT22;9999;48.780;9.146;2023-02-26T09:03:36;-0.60;99.90
7512;DHT22;9999;48.780;9.146;2023-02-26T09:06:03;-0.50;99.90
7512;DHT22;9999;48.780;9.146;2023-02-26T09:08:30;-0.40;99.90
7512;DHT22;9999;48.780;9.146;2023-02-26T09:10:59;-0.40;99.90
7512;DHT22;9999;48.780;9.146;2023-02-26T09:13:28;-0.30;99.90
7512;DHT22;9999;48.780;9.146;2023-02-26T09:15:55;-0.20;99.90
7512;DHT22;9999;48.780;9.146;2023-02-26T09:18:23;-0.30;99.90
7512;DHT22;9999;48.780;9.146;2023-02-26T09:20:49;-0.30;99.90
7512;DHT22;9999;48.780;9.146;2023-02-26T09:23:16;-0.30;99.90
7512;DHT22;9999;48.780;9.146;2023-02-26T09:25:43;-0.30;99.90
7512;DHT22;9999;48.780;9.146;2023-02-26T09:28:10;-0.20;99.90
7512;DHT22;9999;48.780;9.146;2023-02-26T09:30:38;-0.20;99.90
7512;DHT22;9999;48.780;9.146;2023-02-26T09:33:05;-0.10;99.90
7512;DHT22;9999;48.780;9.146;2023-02-26T09:35:32;-0.10;99.90
7512;DHT22;9999;48.780;9.146;2023-02-26T09:37:58;-0.10;99.90
7512;DHT22;9999;48.780;9.146;2023-02-26T09:40:41;-0.10;99.90
7512;DHT22;9999;48.780;9.146;2023-02-26T09:43:34;-0.20;99.90
7512;DHT22;9999;48.780;9.146;2023-02-26T09:46:09;-0.10;99.90
7512;DHT22;9999;48.780;9.146;2023-02-26T09:48:38;-0.10;99.90
7512;DHT22;9999;48.780;9.146;2023-02-26T09:51:08;-0.10;99.90
7512;DHT22;9999;48.780;9.146;2023-02-26T09:53:38;-0.10;99.90
7512;DHT22;9999;48.780;9.146;2023-02-26T09:56:09;-0.10;99.90
7512;DHT22;9999;48.780;9.146;2023-02-26T09:58:40;-0.10;99.90
7512;DHT22;9999;48.780;9.146;2023-02-26T10:01:12;-0.10;99.90
7512;DHT22;9999;48.780;9.146;2023-02-26T10:03:53;-0.10;99.90
7512;DHT22;9999;48.780;9.146;2023-02-26T10:06:24;-0.10;99.90
7512;DHT22;9999;48.780;9.146;2023-02-26T10:09:09;0.00;99.90
7512;DHT22;9999;48.780;9.146;2023-02-26T10:11:44;0.00;99.90
7512;DHT22;9999;48.780;9.146;2023-02-26T10:14:17;-0.10;99.90
7512;DHT22;9999;48.780;9.146;2023-02-26T10:16:51;-0.10;99.90
7512;DHT22;9999;48.780;9.146;2023-02-26T10:19:22;-0.10;99.90
7512;DHT22;9999;48.780;9.146;2023-02-26T10:21:53;-0.10;99.90
7512;DHT22;9999;48.780;9.146;2023-02-26T10:24:25;0.00;99.90
7512;DHT22;9999;48.780;9.146;2023-02-26T10:26:59;0.00;99.90
7512;DHT22;9999;48.780;9.146;2023-02-26T10:29:33;0.00;99.90
7512;DHT22;9999;48.780;9.146;2023-02-26T10:32:17;0.10;99.90
7512;DHT22;9999;48.780;9.146;2023-02-26T10:34:52;0.10;99.90
7512;DHT22;9999;48.780;9.146;2023-02-26T10:37:26;0.10;99.90
7512;DHT22;9999;48.780;9.146;2023-02-26T10:39:57;0.10;99.90
7512;DHT22;9999;48.780;9.146;2023-02-26T10:42:30;0.10;99.90
7512;DHT22;9999;48.780;9.146;2023-02-26T10:45:08;0.10;99.90
7512;DHT22;9999;48.780;9.146;2023-02-26T10:47:44;0.20;99.90
7512;DHT22;9999;48.780;9.146;2023-02-26T10:50:15;0.10;99.90
7512;DHT22;9999;48.780;9.146;2023-02-26T10:52:44;0.10;99.90
7512;DHT22;9999;48.780;9.146;2023-02-26T10:55:29;0.20;99.90
7512;DHT22;9999;48.780;9.146;2023-02-26T10:58:02;0.20;99.90
7512;DHT22;9999;48.780;9.146;2023-02-26T11:00:30;0.30;99.90
7512;DHT22;9999;48.780;9.146;2023-02-26T11:03:01;0.40;99.90
7512;DHT22;9999;48.780;9.146;2023-02-26T11:05:31;0.40;99.90
7512;DHT22;9999;48.780;9.146;2023-02-26T11:08:01;0.30;99.90
7512;DHT22;9999;48.780;9.146;2023-02-26T11:10:38;0.30;99.90
7512;DHT22;9999;48.780;9.146;2023-02-26T11:13:05;0.30;99.90
7512;DHT22;9999;48.780;9.146;2023-02-26T11:15:32;0.40;99.90
7512;DHT22;9999;48.780;9.146;2023-02-26T11:18:00;0.40;99.90
7512;DHT22;9999;48.780;9.146;2023-02-26T11:20:34;0.40;99.90
7512;DHT22;9999;48.780;9.146;2023-02-26T11:23:03;0.50;99.90
7512;DHT22;9999;48.780;9.146;2023-02-26T11:25:33;0.50;99.90
7512;DHT22;9999;48.780;9.146;2023-02-26T11:28:03;0.60;99.90
7512;DHT22;9999;48.780;9.146;2023-02-26T11:30:32;0.70;99.90
7512;DHT22;9999;48.780;9.146;2023-02-26T11:33:14;0.70;99.90
7512;DHT22;9999;48.780;9.146;2023-02-26T11:35:42;0.80;99.90
7512;DHT22;9999;48.780;9.146;2023-02-26T11:38:16;0.80;99.90
7512;DHT22;9999;48.780;9.146;2023-02-26T11:40:46;0.80;99.90
7512;DHT22;9999;48.780;9.146;2023-02-26T11:43:15;0.70;99.90
7512;DHT22;9999;48.780;9.146;2023-02-26T11:45:46;0.70;99.90
7512;DHT22;9999;48.780;9.146;2023-02-26T11:48:20;0.70;99.90
7512;DHT22;9999;48.780;9.146;2023-02-26T11:50:51;0.70;99.90
7512;DHT22;9999;48.780;9.146;2023-02-26T11:53:23;0.80;99.90
7512;DHT22;9999;48.780;9.146;2023-02-26T11:55:52;0.90;99.90
7512;DHT22;9999;48.780;9.146;2023-02-26T11:58:20;0.90;99.90
7512;DHT22;9999;48.780;9.146;2023-02-26T12:00:50;0.80;99.90
7512;DHT22;9999;48.780;9.146;2023-02-26T12:03:20;0.80;99.90
7512;DHT22;9999;48.780;9.146;2023-02-26T12:05:47;0.70;99.90
7512;DHT22;9999;48.780;9.146;2023-02-26T12:08:19;0.70;99.90
7512;DHT22;9999;48.780;9.146;2023-02-26T12:10:58;0.70;99.90
7512;DHT22;9999;48.780;9.146;2023-02-26T12:13:32;0.80;99.90
7512;DHT22;9999;48.780;9.146;2023-02-26T12:16:08;0.80;99.90
7512;DHT22;9999;48.780;9.146;2023-02-26T12:18:54;0.70;99.90
7512;DHT22;9999;48.780;9.146;2023-02-26T12:27:53;0.80;99.90
7512;DHT22;9999;48.780;9.146;2023-02-26T12:30:37;0.80;99.90
7512;DHT22;9999;48.780;9.146;2023-02-26T12:33:14;0.80;99.90
7512;DHT22;9999;48.780;9.146;2023-02-26T12:35:51;0.70;99.90
7512;DHT22;9999;48.780;9.146;2023-02-26T12:38:28;0.80;99.90
7512;DHT22;9999;48.780;9.146;2023-02-26T12:41:22;0.80;99.90
7512;DHT22;9999;48.780;9.146;2023-02-26T12:43:52;0.80;99.90
7512;DHT22;9999;48.780;9.146;2023-02-26T12:46:42;0.80;99.90
7512;DHT22;9999;48.780;9.146;2023-02-26T12:49:30;0.80;99.90
7512;DHT22;9999;48.780;9.146;2023-02-26T12:52:16;0.80;99.90
7512;DHT22;9999;48.780;9.146;2023-02-26T12:55:02;0.80;99.90
7512;DHT22;9999;48.780;9.146;2023-02-26T12:57:45;0.80;99.90
7512;DHT22;9999;48.780;9.146;2023-02-26T13:00:26;1.00;99.90
7512;DHT22;9999;48.780;9.146;2023-02-26T13:09:12;1.30;99.90
7512;DHT22;9999;48.780;9.146;2023-02-26T13:11:49;1.30;99.90
7512;DHT22;9999;48.780;9.146;2023-02-26T13:14:31;1.20;99.90
7512;DHT22;9999;48.780;9.146;2023-02-26T13:17:04;1.20;99.90
7512;DHT22;9999;48.780;9.146;2023-02-26T13:19:39;1.30;99.90
7512;DHT22;9999;48.780;9.146;2023-02-26T13:22:14;1.30;99.90
7512;DHT22;9999;48.780;9.146;2023-02-26T13:24:49;1.30;99.90
7512;DHT22;9999;48.780;9.146;2023-02-26T13:27:17;1.30;99.90
7512;DHT22;9999;48.780;9.146;2023-02-26T13:29:48;1.40;99.90
7512;DHT22;9999;48.780;9.146;2023-02-26T13:32:20;1.40;99.90
7512;DHT22;9999;48.780;9.146;2023-02-26T13:34:52;1.50;99.90
7512;DHT22;9999;48.780;9.146;2023-02-26T13:37:26;1.50;99.90
7512;DHT22;9999;48.780;9.146;2023-02-26T13:40:10;1.50;99.90
7512;DHT22;9999;48.780;9.146;2023-02-26T13:42:47;1.50;99.90
7512;DHT22;9999;48.780;9.146;2023-02-26T13:45:35;1.60;99.90
7512;DHT22;9999;48.780;9.146;2023-02-26T13:48:15;1.60;99.90
7512;DHT22;9999;48.780;9.146;2023-02-26T13:50:52;1.60;99.90
7512;DHT22;9999;48.780;9.146;2023-02-26T13:53:53;1.60;99.90
7512;DHT22;9999;48.780;9.146;2023-02-26T13:56:42;1.60;99.90
7512;DHT22;9999;48.780;9.146;2023-02-26T13:59:28;1.60;99.90
7512;DHT22;9999;48.780;9.146;2023-02-26T14:01:57;1.70;99.90
7512;DHT22;9999;48.780;9.146;2023-02-26T14:04:29;1.80;99.90
7512;DHT22;9999;48.780;9.146;2023-02-26T14:06:57;1.90;99.90
7512;DHT22;9999;48.780;9.146;2023-02-26T14:09:36;1.90;99.90
7512;DHT22;9999;48.780;9.146;2023-02-26T14:12:30;1.90;99.90
7512;DHT22;9999;48.780;9.146;2023-02-26T14:15:18;1.90;99.90
7512;DHT22;9999;48.780;9.146;2023-02-26T14:17:48;1.90;99.90
7512;DHT22;9999;48.780;9.146;2023-02-26T14:20:21;1.80;99.90
7512;DHT22;9999;48.780;9.146;2023-02-26T14:22:52;1.80;99.90
7512;DHT22;9999;48.780;9.146;2023-02-26T14:25:28;1.80;99.90
7512;DHT22;9999;48.780;9.146;2023-02-26T14:28:28;1.80;99.90
7512;DHT22;9999;48.780;9.146;2023-02-26T14:31:06;2.00;99.90
7512;DHT22;9999;48.780;9.146;2023-02-26T14:33:39;2.40;99.90
7512;DHT22;9999;48.780;9.146;2023-02-26T14:36:15;2.50;99.90
7512;DHT22;9999;48.780;9.146;2023-02-26T14:38:43;2.60;99.90
7512;DHT22;9999;48.780;9.146;2023-02-26T14:41:19;2.50;99.90
7512;DHT22;9999;48.780;9.146;2023-02-26T14:43:56;2.30;99.90
7512;DHT22;9999;48.780;9.146;2023-02-26T14:46:24;2.10;99.90
7512;DHT22;9999;48.780;9.146;2023-02-26T14:48:51;1.90;99.90
7512;DHT22;9999;48.780;9.146;2023-02-26T14:51:29;1.90;99.90
7512;DHT22;9999;48.780;9.146;2023-02-26T14:54:29;1.90;99.90
7512;DHT22;9999;48.780;9.146;2023-02-26T14:57:02;1.80;99.90
7512;DHT22;9999;48.780;9.146;2023-02-26T14:59:45;2.00;99.90
7512;DHT22;9999;48.780;9.146;2023-02-26T15:02:23;2.20;99.90
7512;DHT22;9999;48.780;9.146;2023-02-26T15:05:12;2.20;99.90
7512;DHT22;9999;48.780;9.146;2023-02-26T15:10:47;2.30;99.90
7512;DHT22;9999;48.780;9.146;2023-02-26T15:13:39;2.30;99.90
7512;DHT22;9999;48.780;9.146;2023-02-26T15:16:17;2.20;99.90
7512;DHT22;9999;48.780;9.146;2023-02-26T15:19:03;2.10;99.90
7512;DHT22;9999;48.780;9.146;2023-02-26T15:21:40;2.00;99.90
7512;DHT22;9999;48.780;9.146;2023-02-26T15:24:11;1.80;99.90
7512;DHT22;9999;48.780;9.146;2023-02-26T15:26:44;1.80;99.90
7512;DHT22;9999;48.780;9.146;2023-02-26T15:29:13;1.70;99.90
7512;DHT22;9999;48.780;9.146;2023-02-26T15:31:43;1.70;99.90
7512;DHT22;9999;48.780;9.146;2023-02-26T15:34:10;1.70;99.90
7512;DHT22;9999;48.780;9.146;2023-02-26T15:36:42;1.70;99.90
7512;DHT22;9999;48.780;9.146;2023-02-26T15:39:11;1.70;99.90
7512;DHT22;9999;48.780;9.146;2023-02-26T15:41:41;1.60;99.90
7512;DHT22;9999;48.780;9.146;2023-02-26T15:44:14;1.50;99.90
7512;DHT22;9999;48.780;9.146;2023-02-26T15:46:45;1.50;99.90
7512;DHT22;9999;48.780;9.146;2023-02-26T15:49:18;1.50;99.90
7512;DHT22;9999;48.780;9.146;2023-02-26T15:51:46;1.40;99.90
7512;DHT22;9999;48.780;9.146;2023-02-26T15:54:16;1.50;99.90
7512;DHT22;9999;48.780;9.146;2023-02-26T15:56:45;1.50;99.90
7512;DHT22;9999;48.780;9.146;2023-02-26T15:59:16;1.60;99.90
7512;DHT22;9999;48.780;9.146;2023-02-26T16:01:47;1.70;99.90
7512;DHT22;9999;48.780;9.146;2023-02-26T16:04:17;1.80;99.90
7512;DHT22;9999;48.780;9.146;2023-02-26T16:06:46;1.70;99.90
7512;DHT22;9999;48.780;9.146;2023-02-26T16:09:18;1.70;99.90
7512;DHT22;9999;48.780;9.146;2023-02-26T16:11:46;1.60;99.90
7512;DHT22;9999;48.780;9.146;2023-02-26T16:14:16;1.60;99.90
7512;DHT22;9999;48.780;9.146;2023-02-26T16:16:48;1.50;99.90
7512;DHT22;9999;48.780;9.146;2023-02-26T16:19:16;1.40;99.90
7512;DHT22;9999;48.780;9.146;2023-02-26T16:21:46;1.30;99.90
7512;DHT22;9999;48.780;9.146;2023-02-26T16:24:16;1.30;99.90
7512;DHT22;9999;48.780;9.146;2023-02-26T16:26:46;1.20;99.90
7512;DHT22;9999;48.780;9.146;2023-02-26T16:29:16;1.10;99.90
7512;DHT22;9999;48.780;9.146;2023-02-26T16:31:50;1.10;99.90
7512;DHT22;9999;48.780;9.146;2023-02-26T16:34:29;1.10;99.90
7512;DHT22;9999;48.780;9.146;2023-02-26T16:37:08;1.00;99.90
7512;DHT22;9999;48.780;9.146;2023-02-26T16:39:35;1.10;99.90
7512;DHT22;9999;48.780;9.146;2023-02-26T16:42:13;1.10;99.90
7512;DHT22;9999;48.780;9.146;2023-02-26T16:44:49;1.10;99.90
7512;DHT22;9999;48.780;9.146;2023-02-26T16:47:19;1.00;99.90
7512;DHT22;9999;48.780;9.146;2023-02-26T16:49:47;1.00;99.90
7512;DHT22;9999;48.780;9.146;2023-02-26T16:52:19;1.00;99.90
7512;DHT22;9999;48.780;9.146;2023-02-26T16:54:57;1.00;99.90